sensor_id;sensor_type;location;lat;lon;timestamp;pressure;altitude;pressure_sealevel;temperature
37452;BMP280;23314;51.114;6.900;2022-08-21T00:01:44;101447.06;;;18.84
37452;BMP280;23314;51.114;6.900;2022-08-21T00:04:10;101448.75;;;18.81
37452;BMP280;23314;51.114;6.900;2022-08-21T00:06:36;101457.56;;;18.82
37452;BMP280;23314;51.114;6.900;2022-08-21T00:09:05;101449.44;;;18.82
37452;BMP280;23314;51.114;6.900;2022-08-21T00:11:30;101440.63;;;18.81
37452;BMP280;23314;51.114;6.900;2022-08-21T00:13:56;101446.03;;;18.81
37452;BMP280;23314;51.114;6.900;2022-08-21T00:16:22;101437.59;;;18.79
37452;BMP280;23314;51.114;6.900;2022-08-21T00:18:48;101435.31;;;18.78
37452;BMP280;23314;51.114;6.900;2022-08-21T00:21:14;101437.28;;;18.77
37452;BMP280;23314;51.114;6.900;2022-08-21T00:23:39;101432.31;;;18.75
37452;BMP280;23314;51.114;6.900;2022-08-21T00:26:05;101433.84;;;18.77
37452;BMP280;23314;51.114;6.900;2022-08-21T00:28:31;101422.91;;;18.80
37452;BMP280;23314;51.114;6.900;2022-08-21T00:30:57;101425.91;;;18.82
37452;BMP280;23314;51.114;6.900;2022-08-21T00:33:23;101423.19;;;18.82
37452;BMP280;23314;51.114;6.900;2022-08-21T00:35:49;101419.72;;;18.82
37452;BMP280;23314;51.114;6.900;2022-08-21T00:38:14;101417.91;;;18.79
37452;BMP280;23314;51.114;6.900;2022-08-21T00:40:49;101412.66;;;18.75
37452;BMP280;23314;51.114;6.900;2022-08-21T00:43:18;101413.22;;;18.70
37452;BMP280;23314;51.114;6.900;2022-08-21T00:45:46;101408.41;;;18.65
37452;BMP280;23314;51.114;6.900;2022-08-21T00:48:11;101411.72;;;18.60
37452;BMP280;23314;51.114;6.900;2022-08-21T00:50:42;101406.00;;;18.57
37452;BMP280;23314;51.114;6.900;2022-08-21T00:53:09;101417.38;;;18.52
37452;BMP280;23314;51.114;6.900;2022-08-21T00:55:36;101418.72;;;18.48
37452;BMP280;23314;51.114;6.900;2022-08-21T00:58:03;101421.53;;;18.44
37452;BMP280;23314;51.114;6.900;2022-08-21T01:00:36;101422.72;;;18.43
37452;BMP280;23314;51.114;6.900;2022-08-21T01:03:09;101418.97;;;18.40
37452;BMP280;23314;51.114;6.900;2022-08-21T01:05:36;101415.50;;;18.40
37452;BMP280;23314;51.114;6.900;2022-08-21T01:08:03;101411.28;;;18.39
37452;BMP280;23314;51.114;6.900;2022-08-21T01:10:29;101417.47;;;18.39
37452;BMP280;23314;51.114;6.900;2022-08-21T01:12:56;101412.06;;;18.39
37452;BMP280;23314;51.114;6.900;2022-08-21T01:15:29;101417.63;;;18.36
37452;BMP280;23314;51.114;6.900;2022-08-21T01:17:56;101417.72;;;18.32
37452;BMP280;23314;51.114;6.900;2022-08-21T01:20:21;101426.28;;;18.31
37452;BMP280;23314;51.114;6.900;2022-08-21T01:22:47;101434.06;;;18.29
37452;BMP280;23314;51.114;6.900;2022-08-21T01:25:14;101426.84;;;18.26
37452;BMP280;23314;51.114;6.900;2022-08-21T01:27:40;101429.69;;;18.22
37452;BMP280;23314;51.114;6.900;2022-08-21T01:30:16;101424.41;;;18.18
37452;BMP280;23314;51.114;6.900;2022-08-21T01:32:41;101428.44;;;18.14
37452;BMP280;23314;51.114;6.900;2022-08-21T01:35:07;101429.31;;;18.11
37452;BMP280;23314;51.114;6.900;2022-08-21T01:37:33;101434.41;;;18.09
37452;BMP280;23314;51.114;6.900;2022-08-21T01:39:59;101426.88;;;18.03
37452;BMP280;23314;51.114;6.900;2022-08-21T01:42:25;101423.88;;;18.01
37452;BMP280;23314;51.114;6.900;2022-08-21T01:44:50;101427.13;;;17.96
37452;BMP280;23314;51.114;6.900;2022-08-21T01:47:16;101423.47;;;17.90
37452;BMP280;23314;51.114;6.900;2022-08-21T01:49:42;101419.72;;;17.87
37452;BMP280;23314;51.114;6.900;2022-08-21T01:52:08;101417.59;;;17.82
37452;BMP280;23314;51.114;6.900;2022-08-21T01:54:34;101417.69;;;17.79
37452;BMP280;23314;51.114;6.900;2022-08-21T01:57:00;101415.88;;;17.76
37452;BMP280;23314;51.114;6.900;2022-08-21T01:59:26;101411.78;;;17.71
37452;BMP280;23314;51.114;6.900;2022-08-21T02:01:52;101415.34;;;17.68
37452;BMP280;23314;51.114;6.900;2022-08-21T02:04:19;101405.44;;;17.65
37452;BMP280;23314;51.114;6.900;2022-08-21T02:06:45;101409.44;;;17.60
37452;BMP280;23314;51.114;6.900;2022-08-21T02:09:11;101406.88;;;17.57
37452;BMP280;23314;51.114;6.900;2022-08-21T02:11:37;101405.06;;;17.53
37452;BMP280;23314;51.114;6.900;2022-08-21T02:14:13;101407.09;;;17.49
37452;BMP280;23314;51.114;6.900;2022-08-21T02:16:42;101414.88;;;17.47
37452;BMP280;23314;51.114;6.900;2022-08-21T02:19:08;101409.94;;;17.46
37452;BMP280;23314;51.114;6.900;2022-08-21T02:21:34;101411.13;;;17.45
37452;BMP280;23314;51.114;6.900;2022-08-21T02:23:59;101413.03;;;17.44
37452;BMP280;23314;51.114;6.900;2022-08-21T02:26:25;101415.31;;;17.46
37452;BMP280;23314;51.114;6.900;2022-08-21T02:28:50;101413.81;;;17.45
37452;BMP280;23314;51.114;6.900;2022-08-21T02:31:16;101411.84;;;17.45
37452;BMP280;23314;51.114;6.900;2022-08-21T02:33:41;101414.56;;;17.45
37452;BMP280;23314;51.114;6.900;2022-08-21T02:36:08;101404.94;;;17.44
37452;BMP280;23314;51.114;6.900;2022-08-21T02:38:35;101405.84;;;17.41
37452;BMP280;23314;51.114;6.900;2022-08-21T02:41:12;101405.09;;;17.41
37452;BMP280;23314;51.114;6.900;2022-08-21T02:43:38;101403.16;;;17.41
37452;BMP280;23314;51.114;6.900;2022-08-21T02:46:05;101401.75;;;17.36
37452;BMP280;23314;51.114;6.900;2022-08-21T02:48:31;101400.66;;;17.34
37452;BMP280;23314;51.114;6.900;2022-08-21T02:51:00;101405.75;;;17.32
37452;BMP280;23314;51.114;6.900;2022-08-21T02:53:26;101405.13;;;17.28
37452;BMP280;23314;51.114;6.900;2022-08-21T02:55:52;101412.13;;;17.25
37452;BMP280;23314;51.114;6.900;2022-08-21T02:58:21;101408.66;;;17.25
37452;BMP280;23314;51.114;6.900;2022-08-21T03:00:46;101407.81;;;17.28
37452;BMP280;23314;51.114;6.900;2022-08-21T03:03:12;101413.09;;;17.31
37452;BMP280;23314;51.114;6.900;2022-08-21T03:05:39;101408.75;;;17.34
37452;BMP280;23314;51.114;6.900;2022-08-21T03:08:07;101405.97;;;17.37
37452;BMP280;23314;51.114;6.900;2022-08-21T03:10:37;101400.13;;;17.39
37452;BMP280;23314;51.114;6.900;2022-08-21T03:13:02;101400.22;;;17.35
37452;BMP280;23314;51.114;6.900;2022-08-21T03:15:28;101392.28;;;17.32
37452;BMP280;23314;51.114;6.900;2022-08-21T03:17:53;101395.53;;;17.27
37452;BMP280;23314;51.114;6.900;2022-08-21T03:20:22;101401.75;;;17.24
37452;BMP280;23314;51.114;6.900;2022-08-21T03:22:49;101402.63;;;17.20
37452;BMP280;23314;51.114;6.900;2022-08-21T03:25:15;101404.72;;;17.16
37452;BMP280;23314;51.114;6.900;2022-08-21T03:27:41;101409.47;;;17.12
37452;BMP280;23314;51.114;6.900;2022-08-21T03:30:07;101397.59;;;17.10
37452;BMP280;23314;51.114;6.900;2022-08-21T03:32:34;101403.09;;;17.06
37452;BMP280;23314;51.114;6.900;2022-08-21T03:35:00;101403.22;;;17.02
37452;BMP280;23314;51.114;6.900;2022-08-21T03:37:27;101405.25;;;16.98
37452;BMP280;23314;51.114;6.900;2022-08-21T03:39:52;101400.75;;;16.95
37452;BMP280;23314;51.114;6.900;2022-08-21T03:42:18;101405.06;;;16.93
37452;BMP280;23314;51.114;6.900;2022-08-21T03:44:43;101399.34;;;16.91
37452;BMP280;23314;51.114;6.900;2022-08-21T03:47:09;101405.94;;;16.90
37452;BMP280;23314;51.114;6.900;2022-08-21T03:49:35;101406.81;;;16.86
37452;BMP280;23314;51.114;6.900;2022-08-21T03:52:01;101403.78;;;16.84
37452;BMP280;23314;51.114;6.900;2022-08-21T03:54:26;101409.56;;;16.83
37452;BMP280;23314;51.114;6.900;2022-08-21T03:56:51;101403.91;;;16.81
37452;BMP280;23314;51.114;6.900;2022-08-21T03:59:17;101399.69;;;16.80
37452;BMP280;23314;51.114;6.900;2022-08-21T04:01:58;101392.88;;;16.75
37452;BMP280;23314;51.114;6.900;2022-08-21T04:04:24;101400.97;;;16.75
37452;BMP280;23314;51.114;6.900;2022-08-21T04:06:50;101412.91;;;16.74
37452;BMP280;23314;51.114;6.900;2022-08-21T04:09:17;101408.38;;;16.71
37452;BMP280;23314;51.114;6.900;2022-08-21T04:11:42;101409.28;;;16.68
37452;BMP280;23314;51.114;6.900;2022-08-21T04:14:08;101411.97;;;16.68
37452;BMP280;23314;51.114;6.900;2022-08-21T04:16:34;101410.84;;;16.65
37452;BMP280;23314;51.114;6.900;2022-08-21T04:18:59;101419.06;;;16.62
37452;BMP280;23314;51.114;6.900;2022-08-21T04:21:24;101420.22;;;16.61
37452;BMP280;23314;51.114;6.900;2022-08-21T04:23:50;101414.53;;;16.59
37452;BMP280;23314;51.114;6.900;2022-08-21T04:26:15;101421.09;;;16.58
37452;BMP280;23314;51.114;6.900;2022-08-21T04:28:41;101421.09;;;16.58
37452;BMP280;23314;51.114;6.900;2022-08-21T04:31:07;101426.59;;;16.54
37452;BMP280;23314;51.114;6.900;2022-08-21T04:33:33;101433.81;;;16.57
37452;BMP280;23314;51.114;6.900;2022-08-21T04:35:58;101431.00;;;16.61
37452;BMP280;23314;51.114;6.900;2022-08-21T04:38:24;101429.84;;;16.62
37452;BMP280;23314;51.114;6.900;2022-08-21T04:40:50;101439.84;;;16.61
37452;BMP280;23314;51.114;6.900;2022-08-21T04:43:16;101432.22;;;16.60
37452;BMP280;23314;51.114;6.900;2022-08-21T04:45:44;101439.84;;;16.61
37452;BMP280;23314;51.114;6.900;2022-08-21T04:48:12;101440.94;;;16.64
37452;BMP280;23314;51.114;6.900;2022-08-21T04:50:43;101440.81;;;16.67
37452;BMP280;23314;51.114;6.900;2022-08-21T04:53:17;101448.03;;;16.70
37452;BMP280;23314;51.114;6.900;2022-08-21T04:55:43;101444.06;;;16.75
37452;BMP280;23314;51.114;6.900;2022-08-21T04:58:11;101440.50;;;16.78
37452;BMP280;23314;51.114;6.900;2022-08-21T05:00:39;101442.34;;;16.81
37452;BMP280;23314;51.114;6.900;2022-08-21T05:03:06;101449.16;;;16.86
37452;BMP280;23314;51.114;6.900;2022-08-21T05:05:33;101446.22;;;16.93
37452;BMP280;23314;51.114;6.900;2022-08-21T05:08:00;101448.09;;;16.96
37452;BMP280;23314;51.114;6.900;2022-08-21T05:10:27;101441.81;;;16.99
37452;BMP280;23314;51.114;6.900;2022-08-21T05:12:52;101439.00;;;17.03
37452;BMP280;23314;51.114;6.900;2022-08-21T05:15:18;101442.03;;;17.05
37452;BMP280;23314;51.114;6.900;2022-08-21T05:17:44;101442.38;;;17.07
37452;BMP280;23314;51.114;6.900;2022-08-21T05:20:11;101443.75;;;17.12
37452;BMP280;23314;51.114;6.900;2022-08-21T05:22:37;101435.56;;;17.15
37452;BMP280;23314;51.114;6.900;2022-08-21T05:25:03;101433.81;;;17.21
37452;BMP280;23314;51.114;6.900;2022-08-21T05:27:29;101443.66;;;17.28
37452;BMP280;23314;51.114;6.900;2022-08-21T05:29:56;101442.66;;;17.35
37452;BMP280;23314;51.114;6.900;2022-08-21T05:32:21;101443.19;;;17.43
37452;BMP280;23314;51.114;6.900;2022-08-21T05:34:46;101446.81;;;17.49
37452;BMP280;23314;51.114;6.900;2022-08-21T05:37:12;101450.03;;;17.57
37452;BMP280;23314;51.114;6.900;2022-08-21T05:39:37;101457.59;;;17.62
37452;BMP280;23314;51.114;6.900;2022-08-21T05:42:03;101451.94;;;17.69
37452;BMP280;23314;51.114;6.900;2022-08-21T05:44:28;101452.03;;;17.78
37452;BMP280;23314;51.114;6.900;2022-08-21T05:46:54;101460.31;;;17.84
37452;BMP280;23314;51.114;6.900;2022-08-21T05:49:19;101450.47;;;17.90
37452;BMP280;23314;51.114;6.900;2022-08-21T05:51:44;101452.94;;;17.97
37452;BMP280;23314;51.114;6.900;2022-08-21T05:54:10;101458.81;;;18.05
37452;BMP280;23314;51.114;6.900;2022-08-21T05:56:36;101449.38;;;18.10
37452;BMP280;23314;51.114;6.900;2022-08-21T05:59:02;101463.06;;;18.15
37452;BMP280;23314;51.114;6.900;2022-08-21T06:01:27;101462.84;;;18.22
37452;BMP280;23314;51.114;6.900;2022-08-21T06:03:53;101457.63;;;18.28
37452;BMP280;23314;51.114;6.900;2022-08-21T06:06:18;101459.75;;;18.33
37452;BMP280;23314;51.114;6.900;2022-08-21T06:08:44;101455.72;;;18.38
37452;BMP280;23314;51.114;6.900;2022-08-21T06:11:10;101457.13;;;18.43
37452;BMP280;23314;51.114;6.900;2022-08-21T06:13:37;101450.69;;;18.49
37452;BMP280;23314;51.114;6.900;2022-08-21T06:16:07;101442.75;;;18.55
37452;BMP280;23314;51.114;6.900;2022-08-21T06:18:34;101445.19;;;18.62
37452;BMP280;23314;51.114;6.900;2022-08-21T06:21:00;101444.94;;;18.69
37452;BMP280;23314;51.114;6.900;2022-08-21T06:23:25;101444.19;;;18.78
37452;BMP280;23314;51.114;6.900;2022-08-21T06:25:50;101439.56;;;18.88
37452;BMP280;23314;51.114;6.900;2022-08-21T06:28:16;101445.16;;;18.94
37452;BMP280;23314;51.114;6.900;2022-08-21T06:30:41;101442.47;;;19.03
37452;BMP280;23314;51.114;6.900;2022-08-21T06:33:07;101443.69;;;19.11
37452;BMP280;23314;51.114;6.900;2022-08-21T06:35:33;101455.00;;;19.19
37452;BMP280;23314;51.114;6.900;2022-08-21T06:37:59;101448.06;;;19.27
37452;BMP280;23314;51.114;6.900;2022-08-21T06:40:28;101447.63;;;19.38
37452;BMP280;23314;51.114;6.900;2022-08-21T06:42:53;101447.94;;;19.49
37452;BMP280;23314;51.114;6.900;2022-08-21T06:45:19;101445.69;;;19.57
37452;BMP280;23314;51.114;6.900;2022-08-21T06:47:45;101446.88;;;19.65
37452;BMP280;23314;51.114;6.900;2022-08-21T06:50:10;101450.34;;;19.75
37452;BMP280;23314;51.114;6.900;2022-08-21T06:52:36;101449.13;;;19.85
37452;BMP280;23314;51.114;6.900;2022-08-21T06:55:04;101452.56;;;19.95
37452;BMP280;23314;51.114;6.900;2022-08-21T06:57:30;101456.31;;;20.07
37452;BMP280;23314;51.114;6.900;2022-08-21T06:59:55;101450.69;;;20.20
37452;BMP280;23314;51.114;6.900;2022-08-21T07:02:21;101449.94;;;20.28
37452;BMP280;23314;51.114;6.900;2022-08-21T07:04:46;101450.22;;;20.40
37452;BMP280;23314;51.114;6.900;2022-08-21T07:07:11;101453.19;;;20.51
37452;BMP280;23314;51.114;6.900;2022-08-21T07:09:36;101450.59;;;20.57
37452;BMP280;23314;51.114;6.900;2022-08-21T07:12:02;101454.47;;;20.65
37452;BMP280;23314;51.114;6.900;2022-08-21T07:14:28;101457.41;;;20.76
37452;BMP280;23314;51.114;6.900;2022-08-21T07:16:53;101461.88;;;20.89
37452;BMP280;23314;51.114;6.900;2022-08-21T07:19:19;101457.16;;;20.98
37452;BMP280;23314;51.114;6.900;2022-08-21T07:21:45;101460.06;;;21.10
37452;BMP280;23314;51.114;6.900;2022-08-21T07:24:11;101459.56;;;21.21
37452;BMP280;23314;51.114;6.900;2022-08-21T07:26:37;101457.50;;;21.30
37452;BMP280;23314;51.114;6.900;2022-08-21T07:29:02;101460.63;;;21.38
37452;BMP280;23314;51.114;6.900;2022-08-21T07:31:28;101459.53;;;21.45
37452;BMP280;23314;51.114;6.900;2022-08-21T07:33:54;101451.28;;;21.54
37452;BMP280;23314;51.114;6.900;2022-08-21T07:36:19;101452.44;;;21.62
37452;BMP280;23314;51.114;6.900;2022-08-21T07:38:45;101451.50;;;21.65
37452;BMP280;23314;51.114;6.900;2022-08-21T07:41:19;101450.94;;;21.76
37452;BMP280;23314;51.114;6.900;2022-08-21T07:43:45;101450.84;;;21.85
37452;BMP280;23314;51.114;6.900;2022-08-21T07:46:11;101446.72;;;21.90
37452;BMP280;23314;51.114;6.900;2022-08-21T07:48:37;101444.09;;;21.96
37452;BMP280;23314;51.114;6.900;2022-08-21T07:51:07;101446.72;;;22.05
37452;BMP280;23314;51.114;6.900;2022-08-21T07:53:33;101450.53;;;22.13
37452;BMP280;23314;51.114;6.900;2022-08-21T07:55:58;101452.00;;;22.29
37452;BMP280;23314;51.114;6.900;2022-08-21T07:58:23;101451.25;;;22.44
37452;BMP280;23314;51.114;6.900;2022-08-21T08:00:49;101454.09;;;22.55
37452;BMP280;23314;51.114;6.900;2022-08-21T08:03:14;101449.56;;;22.67
37452;BMP280;23314;51.114;6.900;2022-08-21T08:05:40;101439.03;;;22.74
37452;BMP280;23314;51.114;6.900;2022-08-21T08:08:05;101439.63;;;22.84
37452;BMP280;23314;51.114;6.900;2022-08-21T08:10:30;101435.56;;;22.95
37452;BMP280;23314;51.114;6.900;2022-08-21T08:12:55;101435.16;;;23.02
37452;BMP280;23314;51.114;6.900;2022-08-21T08:15:24;101432.47;;;23.07
37452;BMP280;23314;51.114;6.900;2022-08-21T08:17:49;101430.78;;;23.10
37452;BMP280;23314;51.114;6.900;2022-08-21T08:20:16;101431.31;;;23.14
37452;BMP280;23314;51.114;6.900;2022-08-21T08:22:44;101432.38;;;23.22
37452;BMP280;23314;51.114;6.900;2022-08-21T08:25:11;101442.66;;;23.33
37452;BMP280;23314;51.114;6.900;2022-08-21T08:27:37;101429.06;;;23.39
37452;BMP280;23314;51.114;6.900;2022-08-21T08:30:04;101426.19;;;23.48
37452;BMP280;23314;51.114;6.900;2022-08-21T08:32:30;101428.19;;;23.53
37452;BMP280;23314;51.114;6.900;2022-08-21T08:34:55;101434.72;;;23.61
37452;BMP280;23314;51.114;6.900;2022-08-21T08:37:20;101432.03;;;23.67
37452;BMP280;23314;51.114;6.900;2022-08-21T08:39:46;101427.38;;;23.73
37452;BMP280;23314;51.114;6.900;2022-08-21T08:42:15;101420.03;;;23.85
37452;BMP280;23314;51.114;6.900;2022-08-21T08:44:42;101428.03;;;23.94
37452;BMP280;23314;51.114;6.900;2022-08-21T08:47:10;101422.63;;;24.06
37452;BMP280;23314;51.114;6.900;2022-08-21T08:52:34;101419.34;;;24.33
37452;BMP280;23314;51.114;6.900;2022-08-21T08:57:25;101412.00;;;24.62
37452;BMP280;23314;51.114;6.900;2022-08-21T08:59:53;101415.06;;;24.81
37452;BMP280;23314;51.114;6.900;2022-08-21T09:02:20;101415.31;;;24.95
37452;BMP280;23314;51.114;6.900;2022-08-21T09:04:49;101406.66;;;25.08
37452;BMP280;23314;51.114;6.900;2022-08-21T09:09:59;101413.84;;;25.39
37452;BMP280;23314;51.114;6.900;2022-08-21T09:21:41;101401.94;;;25.48
37452;BMP280;23314;51.114;6.900;2022-08-21T09:26:59;101389.72;;;25.77
37452;BMP280;23314;51.114;6.900;2022-08-21T09:29:30;101385.00;;;25.77
37452;BMP280;23314;51.114;6.900;2022-08-21T09:31:56;101385.00;;;25.83
37452;BMP280;23314;51.114;6.900;2022-08-21T09:34:28;101395.94;;;25.89
37452;BMP280;23314;51.114;6.900;2022-08-21T09:36:55;101397.16;;;25.93
37452;BMP280;23314;51.114;6.900;2022-08-21T09:39:30;101391.19;;;26.01
37452;BMP280;23314;51.114;6.900;2022-08-21T09:42:00;101392.41;;;26.00
37452;BMP280;23314;51.114;6.900;2022-08-21T09:44:29;101389.72;;;25.83
37452;BMP280;23314;51.114;6.900;2022-08-21T09:46:57;101393.50;;;25.63
37452;BMP280;23314;51.114;6.900;2022-08-21T09:49:32;101388.53;;;25.50
37452;BMP280;23314;51.114;6.900;2022-08-21T09:52:00;101384.81;;;25.47
37452;BMP280;23314;51.114;6.900;2022-08-21T09:54:30;101393.75;;;25.48
37452;BMP280;23314;51.114;6.900;2022-08-21T09:59:44;101384.28;;;25.66
37452;BMP280;23314;51.114;6.900;2022-08-21T10:02:23;101374.84;;;25.78
37452;BMP280;23314;51.114;6.900;2022-08-21T10:04:57;101382.50;;;25.85
37452;BMP280;23314;51.114;6.900;2022-08-21T10:07:25;101369.06;;;25.87
37452;BMP280;23314;51.114;6.900;2022-08-21T10:10:09;101368.03;;;26.02
37452;BMP280;23314;51.114;6.900;2022-08-21T10:12:48;101371.44;;;26.19
37452;BMP280;23314;51.114;6.900;2022-08-21T10:15:27;101368.13;;;26.38
37452;BMP280;23314;51.114;6.900;2022-08-21T10:18:04;101362.09;;;26.50
37452;BMP280;23314;51.114;6.900;2022-08-21T10:20:45;101367.19;;;26.71
37452;BMP280;23314;51.114;6.900;2022-08-21T10:23:51;101366.75;;;26.92
37452;BMP280;23314;51.114;6.900;2022-08-21T10:29:45;101350.53;;;26.99
37452;BMP280;23314;51.114;6.900;2022-08-21T10:32:24;101354.44;;;27.10
37452;BMP280;23314;51.114;6.900;2022-08-21T10:43:42;101356.50;;;27.28
37452;BMP280;23314;51.114;6.900;2022-08-21T10:46:44;101359.00;;;27.26
37452;BMP280;23314;51.114;6.900;2022-08-21T10:55:36;101344.91;;;27.41
37452;BMP280;23314;51.114;6.900;2022-08-21T10:57:58;101334.66;;;27.47
37452;BMP280;23314;51.114;6.900;2022-08-21T11:00:29;101349.91;;;27.43
37452;BMP280;23314;51.114;6.900;2022-08-21T11:03:04;101343.78;;;27.55
37452;BMP280;23314;51.114;6.900;2022-08-21T11:05:42;101346.53;;;27.55
37452;BMP280;23314;51.114;6.900;2022-08-21T11:08:12;101336.41;;;27.69
37452;BMP280;23314;51.114;6.900;2022-08-21T11:10:43;101345.59;;;27.91
37452;BMP280;23314;51.114;6.900;2022-08-21T11:13:17;101335.69;;;28.07
37452;BMP280;23314;51.114;6.900;2022-08-21T11:16:00;101330.47;;;28.22
37452;BMP280;23314;51.114;6.900;2022-08-21T11:18:31;101341.44;;;28.22
37452;BMP280;23314;51.114;6.900;2022-08-21T11:21:15;101343.34;;;28.08
37452;BMP280;23314;51.114;6.900;2022-08-21T11:24:00;101346.34;;;27.91
37452;BMP280;23314;51.114;6.900;2022-08-21T11:26:43;101338.75;;;27.59
37452;BMP280;23314;51.114;6.900;2022-08-21T11:35:00;101333.72;;;27.39
37452;BMP280;23314;51.114;6.900;2022-08-21T11:37:41;101324.66;;;27.50
37452;BMP280;23314;51.114;6.900;2022-08-21T11:40:47;101331.91;;;27.47
37452;BMP280;23314;51.114;6.900;2022-08-21T11:45:55;101331.41;;;27.68
37452;BMP280;23314;51.114;6.900;2022-08-21T11:51:13;101319.13;;;27.74
37452;BMP280;23314;51.114;6.900;2022-08-21T11:53:50;101326.41;;;27.72
37452;BMP280;23314;51.114;6.900;2022-08-21T11:56:37;101330.16;;;27.69
37452;BMP280;23314;51.114;6.900;2022-08-21T11:59:11;101328.66;;;27.68
37452;BMP280;23314;51.114;6.900;2022-08-21T12:01:42;101324.44;;;27.67
37452;BMP280;23314;51.114;6.900;2022-08-21T12:04:26;101332.59;;;27.72
37452;BMP280;23314;51.114;6.900;2022-08-21T12:06:53;101306.81;;;27.62
37452;BMP280;23314;51.114;6.900;2022-08-21T12:12:33;101314.50;;;27.64
37452;BMP280;23314;51.114;6.900;2022-08-21T12:18:18;101304.84;;;28.01
37452;BMP280;23314;51.114;6.900;2022-08-21T12:21:02;101307.50;;;28.06
37452;BMP280;23314;51.114;6.900;2022-08-21T12:23:31;101299.13;;;27.99
37452;BMP280;23314;51.114;6.900;2022-08-21T12:28:50;101302.56;;;28.18
37452;BMP280;23314;51.114;6.900;2022-08-21T12:31:24;101308.00;;;28.24
37452;BMP280;23314;51.114;6.900;2022-08-21T12:34:01;101307.81;;;28.35
37452;BMP280;23314;51.114;6.900;2022-08-21T12:36:49;101302.09;;;28.20
37452;BMP280;23314;51.114;6.900;2022-08-21T12:39:22;101298.97;;;28.10
37452;BMP280;23314;51.114;6.900;2022-08-21T12:41:59;101296.06;;;28.02
37452;BMP280;23314;51.114;6.900;2022-08-21T12:44:38;101303.03;;;28.03
37452;BMP280;23314;51.114;6.900;2022-08-21T12:47:13;101314.78;;;28.04
37452;BMP280;23314;51.114;6.900;2022-08-21T12:50:10;101300.97;;;28.09
37452;BMP280;23314;51.114;6.900;2022-08-21T12:52:40;101300.09;;;28.33
37452;BMP280;23314;51.114;6.900;2022-08-21T12:55:12;101299.72;;;28.43
37452;BMP280;23314;51.114;6.900;2022-08-21T12:57:40;101302.38;;;28.48
37452;BMP280;23314;51.114;6.900;2022-08-21T13:00:08;101297.75;;;28.57
37452;BMP280;23314;51.114;6.900;2022-08-21T13:02:57;101293.41;;;28.48
37452;BMP280;23314;51.114;6.900;2022-08-21T13:05:33;101300.63;;;28.64
37452;BMP280;23314;51.114;6.900;2022-08-21T13:08:03;101302.31;;;28.67
37452;BMP280;23314;51.114;6.900;2022-08-21T13:10:31;101296.44;;;28.77
37452;BMP280;23314;51.114;6.900;2022-08-21T13:12:59;101308.47;;;28.87
37452;BMP280;23314;51.114;6.900;2022-08-21T13:15:32;101302.13;;;28.79
37452;BMP280;23314;51.114;6.900;2022-08-21T13:17:58;101300.00;;;28.72
37452;BMP280;23314;51.114;6.900;2022-08-21T13:20:30;101295.22;;;28.72
37452;BMP280;23314;51.114;6.900;2022-08-21T13:22:55;101293.03;;;28.71
37452;BMP280;23314;51.114;6.900;2022-08-21T13:25:26;101292.69;;;28.74
37452;BMP280;23314;51.114;6.900;2022-08-21T13:28:07;101293.75;;;28.71
37452;BMP280;23314;51.114;6.900;2022-08-21T13:30:33;101292.19;;;28.76
37452;BMP280;23314;51.114;6.900;2022-08-21T13:33:01;101296.44;;;28.77
37452;BMP280;23314;51.114;6.900;2022-08-21T13:35:35;101297.91;;;28.78
37452;BMP280;23314;51.114;6.900;2022-08-21T13:38:02;101289.84;;;28.66
37452;BMP280;23314;51.114;6.900;2022-08-21T13:40:44;101286.91;;;28.64
37452;BMP280;23314;51.114;6.900;2022-08-21T13:43:17;101282.75;;;28.71
37452;BMP280;23314;51.114;6.900;2022-08-21T13:45:51;101284.16;;;28.78
37452;BMP280;23314;51.114;6.900;2022-08-21T13:48:18;101280.06;;;28.84
37452;BMP280;23314;51.114;6.900;2022-08-21T13:50:44;101274.56;;;28.84
37452;BMP280;23314;51.114;6.900;2022-08-21T13:56:20;101282.03;;;28.84
37452;BMP280;23314;51.114;6.900;2022-08-21T13:58:46;101279.13;;;28.95
37452;BMP280;23314;51.114;6.900;2022-08-21T14:03:54;101275.72;;;29.02
37452;BMP280;23314;51.114;6.900;2022-08-21T14:06:25;101272.88;;;29.08
37452;BMP280;23314;51.114;6.900;2022-08-21T14:08:59;101269.19;;;29.19
37452;BMP280;23314;51.114;6.900;2022-08-21T14:11:27;101264.06;;;29.36
37452;BMP280;23314;51.114;6.900;2022-08-21T14:16:23;101258.63;;;29.57
37452;BMP280;23314;51.114;6.900;2022-08-21T14:19:08;101256.47;;;29.63
37452;BMP280;23314;51.114;6.900;2022-08-21T14:21:38;101261.34;;;29.71
37452;BMP280;23314;51.114;6.900;2022-08-21T14:24:13;101257.03;;;29.62
37452;BMP280;23314;51.114;6.900;2022-08-21T14:27:03;101251.03;;;29.50
37452;BMP280;23314;51.114;6.900;2022-08-21T14:29:41;101256.19;;;29.54
37452;BMP280;23314;51.114;6.900;2022-08-21T14:34:35;101255.56;;;29.61
37452;BMP280;23314;51.114;6.900;2022-08-21T14:37:00;101261.59;;;29.59
37452;BMP280;23314;51.114;6.900;2022-08-21T14:39:26;101254.97;;;29.41
37452;BMP280;23314;51.114;6.900;2022-08-21T14:41:51;101261.88;;;29.21
37452;BMP280;23314;51.114;6.900;2022-08-21T14:44:17;101253.00;;;29.15
37452;BMP280;23314;51.114;6.900;2022-08-21T14:46:44;101249.94;;;29.19
37452;BMP280;23314;51.114;6.900;2022-08-21T14:49:10;101248.44;;;29.18
37452;BMP280;23314;51.114;6.900;2022-08-21T14:51:36;101246.22;;;29.16
37452;BMP280;23314;51.114;6.900;2022-08-21T14:54:01;101244.00;;;29.15
37452;BMP280;23314;51.114;6.900;2022-08-21T14:56:27;101247.31;;;29.13
37452;BMP280;23314;51.114;6.900;2022-08-21T14:58:52;101255.41;;;29.05
37452;BMP280;23314;51.114;6.900;2022-08-21T15:01:20;101246.47;;;28.92
37452;BMP280;23314;51.114;6.900;2022-08-21T15:03:46;101246.66;;;28.80
37452;BMP280;23314;51.114;6.900;2022-08-21T15:06:14;101240.53;;;28.74
37452;BMP280;23314;51.114;6.900;2022-08-21T15:08:40;101252.56;;;28.71
37452;BMP280;23314;51.114;6.900;2022-08-21T15:11:07;101249.94;;;28.65
37452;BMP280;23314;51.114;6.900;2022-08-21T15:13:33;101249.38;;;28.54
37452;BMP280;23314;51.114;6.900;2022-08-21T15:15:59;101244.75;;;28.48
37452;BMP280;23314;51.114;6.900;2022-08-21T15:18:28;101247.59;;;28.56